createdAt,value
2017-05-25T00:00:24.005Z,1018.37
2017-05-25T00:01:24.033Z,1018.35
2017-05-25T00:02:24.064Z,1018.4
2017-05-25T00:03:24.079Z,1018.4
2017-05-25T00:04:24.130Z,1018.38
2017-05-25T00:05:24.162Z,1018.34
2017-05-25T00:06:24.199Z,1018.4
2017-05-25T00:07:24.222Z,1018.36
2017-05-25T00:08:24.260Z,1018.34
2017-05-25T00:09:24.274Z,1018.32
2017-05-25T00:10:24.321Z,1018.32
2017-05-25T00:11:24.352Z,1018.32
2017-05-25T00:12:24.383Z,1018.34
2017-05-25T00:13:24.423Z,1018.36
2017-05-25T00:14:24.449Z,1018.32
2017-05-25T00:15:24.475Z,1018.3
2017-05-25T00:16:24.516Z,1018.3
2017-05-25T00:17:24.548Z,1018.31
2017-05-25T00:18:24.579Z,1018.32
2017-05-25T00:19:24.609Z,1018.31
2017-05-25T00:20:24.644Z,1018.3
2017-05-25T00:21:24.677Z,1018.29
2017-05-25T00:22:24.708Z,1018.26
2017-05-25T00:23:24.740Z,1018.2
2017-05-25T00:24:24.776Z,1018.28
2017-05-25T00:25:24.806Z,1018.27
2017-05-25T00:26:24.816Z,1018.27
2017-05-25T00:27:24.866Z,1018.26
2017-05-25T00:28:24.901Z,1018.26
2017-05-25T00:29:24.932Z,1018.25
2017-05-25T00:30:24.965Z,1018.23
2017-05-25T00:31:24.997Z,1018.26
2017-05-25T00:32:25.028Z,1018.27
2017-05-25T00:33:25.067Z,1018.22
2017-05-25T00:34:25.096Z,1018.24
2017-05-25T00:35:25.124Z,1018.24
2017-05-25T00:36:25.162Z,1018.23
2017-05-25T00:37:25.173Z,1018.26
2017-05-25T00:38:25.223Z,1018.27
2017-05-25T00:39:25.245Z,1018.26
2017-05-25T00:40:25.285Z,1018.3
2017-05-25T00:41:25.321Z,1018.28
2017-05-25T00:42:25.350Z,1018.23
2017-05-25T00:43:25.379Z,1018.25
2017-05-25T00:44:25.415Z,1018.23
2017-05-25T00:45:25.446Z,1018.2
2017-05-25T00:46:25.474Z,1018.22
2017-05-25T00:47:25.510Z,1018.19
2017-05-25T00:48:25.543Z,1018.21
2017-05-25T00:49:25.575Z,1018.22
2017-05-25T00:50:25.596Z,1018.26
2017-05-25T00:51:25.638Z,1018.24
2017-05-25T00:52:25.672Z,1018.24
2017-05-25T00:53:25.701Z,1018.26
2017-05-25T00:54:25.740Z,1018.31
2017-05-25T00:55:25.766Z,1018.32
2017-05-25T00:56:25.781Z,1018.26
2017-05-25T00:57:25.820Z,1018.32
2017-05-25T00:58:25.864Z,1018.31
2017-05-25T00:59:25.899Z,1018.31
2017-05-25T01:00:25.929Z,1018.28
2017-05-25T01:01:25.963Z,1018.35
2017-05-25T01:02:25.976Z,1018.27
2017-05-25T01:03:26.022Z,1018.32
2017-05-25T01:04:26.062Z,1018.32
2017-05-25T01:05:26.077Z,1018.3
2017-05-25T01:06:26.127Z,1018.34
2017-05-25T01:07:26.153Z,1018.32
2017-05-25T01:08:26.184Z,1018.32
2017-05-25T01:09:26.213Z,1018.29
2017-05-25T01:10:26.237Z,1018.35
2017-05-25T01:11:26.279Z,1018.33
2017-05-25T01:12:26.309Z,1018.3
2017-05-25T01:13:26.319Z,1018.28
2017-05-25T01:14:26.376Z,1018.31
2017-05-25T01:15:26.507Z,1018.34
2017-05-25T01:16:26.438Z,1018.27
2017-05-25T01:17:26.464Z,1018.26
2017-05-25T01:18:26.497Z,1018.29
2017-05-25T01:19:26.531Z,1018.33
2017-05-25T01:20:26.565Z,1018.31
2017-05-25T01:21:26.594Z,1018.26
2017-05-25T01:22:26.633Z,1018.27
2017-05-25T01:23:26.647Z,1018.26
2017-05-25T01:24:26.695Z,1018.26
2017-05-25T01:25:26.721Z,1018.27
2017-05-25T01:26:26.759Z,1018.22
2017-05-25T01:27:26.791Z,1018.24
2017-05-25T01:28:26.810Z,1018.23
2017-05-25T01:29:26.851Z,1018.23
2017-05-25T01:30:26.885Z,1018.24
2017-05-25T01:31:26.920Z,1018.24
2017-05-25T01:32:26.949Z,1018.23
2017-05-25T01:33:26.982Z,1018.2
2017-05-25T01:34:26.995Z,1018.23
2017-05-25T01:35:27.042Z,1018.22
2017-05-25T01:36:27.078Z,1018.25
2017-05-25T01:37:27.095Z,1018.25
2017-05-25T01:38:27.126Z,1018.25
2017-05-25T01:39:27.171Z,1018.23
2017-05-25T01:40:27.190Z,1018.24
2017-05-25T01:41:27.233Z,1018.24
2017-05-25T01:42:27.263Z,1018.27
2017-05-25T01:43:27.296Z,1018.29
2017-05-25T01:44:27.333Z,1018.28
2017-05-25T01:45:27.359Z,1018.27
2017-05-25T01:46:27.393Z,1018.26
2017-05-25T01:47:27.426Z,1018.25
2017-05-25T01:48:27.460Z,1018.25
2017-05-25T01:49:27.486Z,1018.24
2017-05-25T01:50:27.514Z,1018.29
2017-05-25T01:51:27.555Z,1018.26
2017-05-25T01:52:27.587Z,1018.22
2017-05-25T01:53:27.615Z,1018.28
2017-05-25T01:54:27.650Z,1018.27
2017-05-25T01:55:27.679Z,1018.21
2017-05-25T01:56:27.718Z,1018.26
2017-05-25T01:57:27.742Z,1018.33
2017-05-25T01:58:27.774Z,1018.25
2017-05-25T01:59:27.810Z,1018.26
2017-05-25T02:00:27.837Z,1018.3
2017-05-25T02:01:27.861Z,1018.31
2017-05-25T02:02:27.893Z,1018.28
2017-05-25T02:03:27.934Z,1018.3
2017-05-25T02:04:27.965Z,1018.28
2017-05-25T02:05:27.979Z,1018.33
2017-05-25T02:06:28.012Z,1018.37
2017-05-25T02:07:28.064Z,1018.31
2017-05-25T02:08:28.098Z,1018.32
2017-05-25T02:09:28.125Z,1018.35
2017-05-25T02:10:28.156Z,1018.29
2017-05-25T02:11:28.186Z,1018.33
2017-05-25T02:12:28.216Z,1018.3
2017-05-25T02:13:28.251Z,1018.29
2017-05-25T02:14:28.264Z,1018.36
2017-05-25T02:15:28.315Z,1018.36
2017-05-25T02:16:28.346Z,1018.33
2017-05-25T02:17:28.379Z,1018.31
2017-05-25T02:18:28.413Z,1018.31
2017-05-25T02:19:28.442Z,1018.28
2017-05-25T02:20:28.472Z,1018.32
2017-05-25T02:21:28.511Z,1018.3
2017-05-25T02:22:28.536Z,1018.3
2017-05-25T02:23:28.550Z,1018.29
2017-05-25T02:24:28.602Z,1018.32
2017-05-25T02:25:28.632Z,1018.31
2017-05-25T02:26:28.649Z,1018.28
2017-05-25T02:27:28.694Z,1018.36
2017-05-25T02:28:28.716Z,1018.34
2017-05-25T02:29:28.759Z,1018.34
2017-05-25T02:30:28.788Z,1018.3
2017-05-25T02:31:28.818Z,1018.27
2017-05-25T02:32:28.850Z,1018.25
2017-05-25T02:33:28.884Z,1018.24
2017-05-25T02:34:28.895Z,1018.23
2017-05-25T02:35:28.951Z,1018.27
2017-05-25T02:36:28.980Z,1018.2
2017-05-25T02:37:29.015Z,1018.2
2017-05-25T02:38:29.047Z,1018.22
2017-05-25T02:39:29.067Z,1018.23
2017-05-25T02:40:29.306Z,1018.2
2017-05-25T02:41:29.118Z,1018.19
2017-05-25T02:42:29.168Z,1018.16
2017-05-25T02:43:29.206Z,1018.15
2017-05-25T02:44:29.234Z,1018.14
2017-05-25T02:45:29.264Z,1018.16
2017-05-25T02:46:29.298Z,1018.17
2017-05-25T02:47:29.310Z,1018.2
2017-05-25T02:48:29.357Z,1018.17
2017-05-25T02:49:29.391Z,1018.21
2017-05-25T02:50:29.402Z,1018.2
2017-05-25T02:51:29.454Z,1018.2
2017-05-25T02:52:29.480Z,1018.2
2017-05-25T02:53:29.514Z,1018.18
2017-05-25T02:54:29.548Z,1018.13
2017-05-25T02:55:29.563Z,1018.14
2017-05-25T02:56:29.611Z,1018.12
2017-05-25T02:57:29.639Z,1018.15
2017-05-25T02:58:29.676Z,1018.14
2017-05-25T02:59:29.709Z,1018.12
2017-05-25T03:00:29.736Z,1018.14
2017-05-25T03:01:29.766Z,1018.12
2017-05-25T03:02:29.802Z,1018.14
2017-05-25T03:03:29.833Z,1018.11
2017-05-25T03:04:29.859Z,1018.14
2017-05-25T03:05:29.898Z,1018.23
2017-05-25T03:06:29.908Z,1018.17
2017-05-25T03:07:29.956Z,1018.17
2017-05-25T03:08:29.994Z,1018.12
2017-05-25T03:09:29.997Z,1018.12
2017-05-25T03:10:30.055Z,1018.19
2017-05-25T03:11:30.084Z,1018.22
2017-05-25T03:12:30.114Z,1018.13
2017-05-25T03:13:30.146Z,1018.14
2017-05-25T03:14:30.177Z,1018.2
2017-05-25T03:15:30.209Z,1018.26
2017-05-25T03:16:30.244Z,1018.22
2017-05-25T03:17:30.278Z,1018.24
2017-05-25T03:18:30.289Z,1018.25
2017-05-25T03:19:30.319Z,1018.25
2017-05-25T03:20:30.370Z,1018.24
2017-05-25T03:21:30.402Z,1018.31
2017-05-25T03:22:30.436Z,1018.32
2017-05-25T03:23:30.463Z,1018.29
2017-05-25T03:24:30.496Z,1018.34
2017-05-25T03:25:30.523Z,1018.29
2017-05-25T03:26:30.558Z,1018.33
2017-05-25T03:27:30.588Z,1018.3
2017-05-25T03:28:30.611Z,1018.24
2017-05-25T03:29:30.648Z,1018.26
2017-05-25T03:30:30.680Z,1018.25
2017-05-25T03:31:30.696Z,1018.27
2017-05-25T03:32:30.748Z,1018.26
2017-05-25T03:33:30.777Z,1018.25
2017-05-25T03:34:30.795Z,1018.29
2017-05-25T03:35:30.841Z,1018.32
2017-05-25T03:36:30.873Z,1018.32
2017-05-25T03:37:30.906Z,1018.31
2017-05-25T03:38:30.938Z,1018.35
2017-05-25T03:39:30.968Z,1018.37
2017-05-25T03:40:31.000Z,1018.36
2017-05-25T03:41:31.036Z,1018.37
2017-05-25T03:42:31.047Z,1018.37
2017-05-25T03:43:31.090Z,1018.41
2017-05-25T03:44:31.112Z,1018.4
2017-05-25T03:45:31.160Z,1018.37
2017-05-25T03:46:31.186Z,1018.44
2017-05-25T03:47:31.218Z,1018.36
2017-05-25T03:48:31.252Z,1018.38
2017-05-25T03:49:31.262Z,1018.35
2017-05-25T03:50:31.314Z,1018.32
2017-05-25T03:51:31.348Z,1018.37
2017-05-25T03:52:31.382Z,1018.39
2017-05-25T03:53:31.411Z,1018.36
2017-05-25T03:54:31.443Z,1018.35
2017-05-25T03:55:31.473Z,1018.35
2017-05-25T03:56:31.490Z,1018.35
2017-05-25T03:57:31.532Z,1018.3
2017-05-25T03:58:31.572Z,1018.3
2017-05-25T03:59:31.608Z,1018.3
2017-05-25T04:00:31.621Z,1018.32
2017-05-25T04:01:31.659Z,1018.29
2017-05-25T04:02:31.674Z,1018.31
2017-05-25T04:03:31.704Z,1018.35
2017-05-25T04:04:31.745Z,1018.36
2017-05-25T04:05:31.777Z,1018.35
2017-05-25T04:06:31.807Z,1018.38
2017-05-25T04:07:31.842Z,1018.35
2017-05-25T04:08:31.874Z,1018.34
2017-05-25T04:09:31.907Z,1018.33
2017-05-25T04:10:31.936Z,1018.33
2017-05-25T04:11:31.970Z,1018.33
2017-05-25T04:12:31.999Z,1018.42
2017-05-25T04:13:32.032Z,1018.45
2017-05-25T04:14:32.064Z,1018.45
2017-05-25T04:15:32.098Z,1018.58
2017-05-25T04:16:32.127Z,1018.53
2017-05-25T04:17:32.159Z,1018.57
2017-05-25T04:18:32.194Z,1018.63
2017-05-25T04:19:32.225Z,1018.73
2017-05-25T04:20:32.243Z,1018.85
2017-05-25T04:21:32.290Z,1018.82
2017-05-25T04:22:32.322Z,1018.73
2017-05-25T04:23:32.354Z,1018.72
2017-05-25T04:24:32.375Z,1018.56
2017-05-25T04:25:32.421Z,1018.5
2017-05-25T04:26:32.452Z,1018.45
2017-05-25T04:27:32.487Z,1018.43
2017-05-25T04:28:32.515Z,1018.49
2017-05-25T04:29:32.552Z,1018.47
2017-05-25T04:30:32.573Z,1018.44
2017-05-25T04:31:32.619Z,1018.46
2017-05-25T04:32:32.656Z,1018.49
2017-05-25T04:33:32.686Z,1018.54
2017-05-25T04:34:32.719Z,1018.55
2017-05-25T04:35:32.752Z,1018.51
2017-05-25T04:36:32.787Z,1018.52
2017-05-25T04:37:32.819Z,1018.57
2017-05-25T04:38:32.852Z,1018.58
2017-05-25T04:39:32.887Z,1018.61
2017-05-25T04:40:32.919Z,1018.62
2017-05-25T04:41:32.955Z,1018.59
2017-05-25T04:42:32.989Z,1018.68
2017-05-25T04:43:33.010Z,1018.66
2017-05-25T04:44:33.055Z,1018.64
2017-05-25T04:45:33.245Z,1018.67
2017-05-25T04:46:33.120Z,1018.73
2017-05-25T04:47:33.154Z,1018.7
2017-05-25T04:48:33.186Z,1018.69
2017-05-25T04:49:33.221Z,1018.7
2017-05-25T04:50:33.255Z,1018.68
2017-05-25T04:51:33.286Z,1018.66
2017-05-25T04:52:33.317Z,1018.62
2017-05-25T04:53:33.353Z,1018.61
2017-05-25T04:54:33.385Z,1018.62
2017-05-25T04:55:33.415Z,1018.59
2017-05-25T04:56:33.454Z,1018.59
2017-05-25T04:57:33.490Z,1018.59
2017-05-25T04:58:33.517Z,1018.58
2017-05-25T04:59:33.550Z,1018.57
2017-05-25T05:00:33.596Z,1018.63
2017-05-25T05:01:33.632Z,1018.63
2017-05-25T05:02:33.654Z,1018.64
2017-05-25T05:03:33.681Z,1018.66
2017-05-25T05:04:33.739Z,1018.69
2017-05-25T05:05:33.785Z,1018.7
2017-05-25T05:06:33.786Z,1018.68
2017-05-25T05:07:33.820Z,1018.63
2017-05-25T05:08:33.851Z,1018.64
2017-05-25T05:09:33.890Z,1018.64
2017-05-25T05:10:33.920Z,1018.6
2017-05-25T05:11:33.951Z,1018.6
2017-05-25T05:12:33.985Z,1018.61
2017-05-25T05:13:34.024Z,1018.67
2017-05-25T05:14:34.051Z,1018.66
2017-05-25T05:15:34.088Z,1018.68
2017-05-25T05:16:34.121Z,1018.71
2017-05-25T05:17:34.157Z,1018.64
2017-05-25T05:18:34.186Z,1018.64
2017-05-25T05:19:34.225Z,1018.66
2017-05-25T05:20:34.258Z,1018.68
2017-05-25T05:21:34.288Z,1018.73
2017-05-25T05:22:34.326Z,1018.75
2017-05-25T05:23:34.361Z,1018.7
2017-05-25T05:24:34.398Z,1018.83
2017-05-25T05:25:34.427Z,1018.88
2017-05-25T05:26:34.463Z,1018.91
2017-05-25T05:27:34.497Z,1018.88
2017-05-25T05:28:34.531Z,1018.85
2017-05-25T05:29:34.564Z,1018.89
2017-05-25T05:30:34.598Z,1018.86
2017-05-25T05:31:34.632Z,1018.9
2017-05-25T05:32:34.669Z,1018.94
2017-05-25T05:33:34.704Z,1018.92
2017-05-25T05:34:34.725Z,1018.93
2017-05-25T05:35:34.774Z,1018.91
2017-05-25T05:36:34.805Z,1018.93
2017-05-25T05:37:34.841Z,1018.96
2017-05-25T05:38:34.877Z,1018.92
2017-05-25T05:39:34.915Z,1018.92
2017-05-25T05:40:34.947Z,1018.94
2017-05-25T05:41:34.986Z,1019.06
2017-05-25T05:42:35.013Z,1018.87
2017-05-25T05:43:35.049Z,1018.83
2017-05-25T05:44:35.097Z,1018.93
2017-05-25T05:45:35.130Z,1018.87
2017-05-25T05:46:35.178Z,1018.91
2017-05-25T05:47:35.205Z,1018.91
2017-05-25T05:48:35.242Z,1018.9
2017-05-25T05:49:35.279Z,1019.03
2017-05-25T05:50:35.363Z,1018.94
2017-05-25T05:51:35.352Z,1018.98
2017-05-25T05:52:35.393Z,1019.07
2017-05-25T05:53:35.428Z,1019
2017-05-25T05:54:35.447Z,1019.02
2017-05-25T05:55:35.537Z,1019.02
2017-05-25T05:56:35.534Z,1019.05
2017-05-25T05:57:35.574Z,1018.99
2017-05-25T05:58:35.602Z,1019.03
2017-05-25T05:59:35.647Z,1019.03
2017-05-25T06:00:35.679Z,1019.04
2017-05-25T06:01:35.715Z,1018.98
2017-05-25T06:02:35.752Z,1018.99
2017-05-25T06:03:35.789Z,1018.93
2017-05-25T06:04:35.829Z,1018.96
2017-05-25T06:05:35.862Z,1018.97
2017-05-25T06:06:35.898Z,1018.92
2017-05-25T06:07:35.930Z,1018.96
2017-05-25T06:08:35.970Z,1018.96
2017-05-25T06:09:36.001Z,1018.92
2017-05-25T06:10:36.035Z,1018.99
2017-05-25T06:11:36.073Z,1018.96
2017-05-25T06:12:36.109Z,1019
2017-05-25T06:13:36.143Z,1019.01
2017-05-25T06:14:36.166Z,1019.02
2017-05-25T06:15:36.216Z,1019.04
2017-05-25T06:16:36.236Z,1019.06
2017-05-25T06:17:36.287Z,1019.08
2017-05-25T06:18:36.324Z,1019.09
2017-05-25T06:19:36.359Z,1019.08
2017-05-25T06:20:36.389Z,1019.14
2017-05-25T06:21:36.426Z,1019.11
2017-05-25T06:22:36.462Z,1019.08
2017-05-25T06:23:36.491Z,1019.1
2017-05-25T06:24:36.531Z,1019.12
2017-05-25T06:25:36.561Z,1019.08
2017-05-25T06:26:36.602Z,1019.17
2017-05-25T06:27:37.489Z,1019.15
2017-05-25T06:28:36.677Z,1019.12
2017-05-25T06:29:36.708Z,1019.18
2017-05-25T06:30:36.730Z,1019.42
2017-05-25T06:31:36.765Z,1019.17
2017-05-25T06:32:36.808Z,1019.43
2017-05-25T06:33:36.843Z,1019.4
2017-05-25T06:34:36.875Z,1019.14
2017-05-25T06:35:36.916Z,1019.12
2017-05-25T06:36:36.953Z,1019.08
2017-05-25T06:37:36.988Z,1019.22
2017-05-25T06:38:37.023Z,1019.12
2017-05-25T06:39:37.061Z,1019.56
2017-05-25T06:40:37.093Z,1019.54
2017-05-25T06:41:37.133Z,1019.47
2017-05-25T06:42:37.156Z,1019.33
2017-05-25T06:43:37.210Z,1019.35
2017-05-25T06:44:37.246Z,1019.4
2017-05-25T06:45:37.286Z,1019.36
2017-05-25T06:46:37.323Z,1019.34
2017-05-25T06:47:37.362Z,1019.26
2017-05-25T06:48:37.406Z,1019.25
2017-05-25T06:49:37.441Z,1019.19
2017-05-25T06:50:37.479Z,1019.21
2017-05-25T06:51:37.521Z,1019.2
2017-05-25T06:52:37.560Z,1019.21
2017-05-25T06:53:37.604Z,1019.27
2017-05-25T06:54:37.642Z,1019.28
2017-05-25T06:55:37.685Z,1019.24
2017-05-25T06:56:37.725Z,1019.21
2017-05-25T06:57:37.768Z,1019.19
2017-05-25T06:58:37.808Z,1019.2
2017-05-25T06:59:37.846Z,1019.2
2017-05-25T07:00:37.890Z,1019.15
2017-05-25T07:01:37.929Z,1019.23
2017-05-25T07:02:38.025Z,1019.02
2017-05-25T07:03:38.018Z,1019.16
2017-05-25T07:04:38.057Z,1019.2
2017-05-25T07:05:38.103Z,1019.13
2017-05-25T07:06:38.133Z,1019.2
2017-05-25T07:07:38.187Z,1019.14
2017-05-25T07:08:38.235Z,1019.13
2017-05-25T07:09:38.272Z,1019.13
2017-05-25T07:10:38.319Z,1019.11
2017-05-25T07:11:38.363Z,1019.06
2017-05-25T07:12:38.403Z,1019.08
2017-05-25T07:13:38.444Z,1019.05
2017-05-25T07:14:38.488Z,1019.12
2017-05-25T07:15:38.543Z,1019.11
2017-05-25T07:16:38.576Z,1019.12
2017-05-25T07:17:38.618Z,1019.13
2017-05-25T07:18:38.721Z,1019.14
2017-05-25T07:19:38.708Z,1019.2
2017-05-25T07:20:38.747Z,1019.29
2017-05-25T07:21:38.797Z,1019.29
2017-05-25T07:22:38.838Z,1019.29
2017-05-25T07:23:38.873Z,1019.13
2017-05-25T07:24:38.926Z,1019.18
2017-05-25T07:25:38.973Z,1019.18
2017-05-25T07:26:39.013Z,1019.12
2017-05-25T07:27:39.065Z,1019.05
2017-05-25T07:28:39.103Z,1019.05
2017-05-25T07:29:39.146Z,1018.99
2017-05-25T07:30:39.194Z,1019.06
2017-05-25T07:31:39.234Z,1019.06
2017-05-25T07:32:39.274Z,1019.01
2017-05-25T07:33:39.322Z,1019.19
2017-05-25T07:34:39.370Z,1019.24
2017-05-25T07:35:39.414Z,1019.28
2017-05-25T07:36:39.455Z,1019.28
2017-05-25T07:37:39.502Z,1019.29
2017-05-25T07:38:39.547Z,1019.24
2017-05-25T07:39:39.588Z,1019.27
2017-05-25T07:40:39.634Z,1019.33
2017-05-25T07:41:39.673Z,1019.31
2017-05-25T07:42:39.726Z,1019.36
2017-05-25T07:43:39.772Z,1019.41
2017-05-25T07:44:39.816Z,1019.39
2017-05-25T07:45:39.866Z,1019.43
2017-05-25T07:46:39.911Z,1019.46
2017-05-25T07:47:39.942Z,1019.57
2017-05-25T07:48:39.998Z,1019.6
2017-05-25T07:49:40.046Z,1019.67
2017-05-25T07:50:40.087Z,1019.01
2017-05-25T07:51:40.133Z,1019.07
2017-05-25T07:52:40.183Z,1019.59
2017-05-25T07:53:40.224Z,1019.09
2017-05-25T07:54:40.268Z,1019.79
2017-05-25T07:55:40.313Z,1019.73
2017-05-25T07:56:40.358Z,1019.74
2017-05-25T07:57:40.397Z,1019.82
2017-05-25T07:58:40.450Z,1019.09
2017-05-25T07:59:40.489Z,1019.09
2017-05-25T08:00:40.542Z,1019.37
2017-05-25T08:01:40.587Z,1019.42
2017-05-25T08:02:40.632Z,1019.52
2017-05-25T08:03:40.663Z,1019.04
2017-05-25T08:04:40.721Z,1019.06
2017-05-25T08:05:40.770Z,1019.09
2017-05-25T08:06:40.811Z,1019.66
2017-05-25T08:07:40.859Z,1019.16
2017-05-25T08:08:40.903Z,1019.63
2017-05-25T08:09:40.942Z,1019.02
2017-05-25T08:10:40.993Z,1019.84
2017-05-25T08:11:41.031Z,1019.53
2017-05-25T08:12:41.078Z,1019.43
2017-05-25T08:13:41.124Z,1019.16
2017-05-25T08:14:41.165Z,1019.84
2017-05-25T08:15:41.211Z,1019.9
2017-05-25T08:16:41.255Z,1019.81
2017-05-25T08:17:41.299Z,1019.89
2017-05-25T08:18:41.343Z,1019.35
2017-05-25T08:19:41.391Z,1019.02
2017-05-25T08:20:41.430Z,1019.05
2017-05-25T08:21:41.473Z,1019.06
2017-05-25T08:22:41.508Z,1020.06
2017-05-25T08:23:41.567Z,1019.1
2017-05-25T08:24:41.607Z,1019.22
2017-05-25T08:25:41.654Z,1019.48
2017-05-25T08:26:41.695Z,1019.28
2017-05-25T08:27:41.739Z,1019.24
2017-05-25T08:28:41.782Z,1020.17
2017-05-25T08:29:41.827Z,1019.2
2017-05-25T08:30:41.868Z,1020.12
2017-05-25T08:31:41.909Z,1019.83
2017-05-25T08:32:41.956Z,1020.05
2017-05-25T08:33:41.998Z,1019.97
2017-05-25T08:34:42.042Z,1020.03
2017-05-25T08:35:42.089Z,1020.02
2017-05-25T08:36:42.130Z,1019.56
2017-05-25T08:37:42.173Z,1019.39
2017-05-25T08:38:42.219Z,1019.09
2017-05-25T08:39:42.263Z,1019.09
2017-05-25T08:40:42.297Z,1019.17
2017-05-25T08:41:42.354Z,1019.17
2017-05-25T08:42:42.450Z,1019.21
2017-05-25T08:43:42.441Z,1019.12
2017-05-25T08:44:42.487Z,1018.99
2017-05-25T08:45:42.529Z,1019.07
2017-05-25T08:46:42.569Z,1019.01
2017-05-25T08:47:42.612Z,1018.92
2017-05-25T08:48:42.659Z,1018.95
2017-05-25T08:49:42.702Z,1019.01
2017-05-25T08:50:42.746Z,1019.09
2017-05-25T08:51:42.785Z,1019.05
2017-05-25T08:52:42.833Z,1019.04
2017-05-25T08:53:42.870Z,1019.05
2017-05-25T08:54:42.912Z,1019.05
2017-05-25T08:55:42.954Z,1019.08
2017-05-25T08:56:42.999Z,1019.11
2017-05-25T08:57:43.038Z,1019.11
2017-05-25T08:58:43.079Z,1019.13
2017-05-25T08:59:43.117Z,1019.24
2017-05-25T09:00:43.161Z,1019.46
2017-05-25T09:01:43.203Z,1019.26
2017-05-25T09:02:43.244Z,1019.2
2017-05-25T09:03:43.287Z,1019.18
2017-05-25T09:04:43.325Z,1019.21
2017-05-25T09:05:43.366Z,1019.22
2017-05-25T09:06:43.407Z,1019.21
2017-05-25T09:07:43.444Z,1019.17
2017-05-25T09:08:43.485Z,1019.1
2017-05-25T09:09:43.527Z,1019.06
2017-05-25T09:10:43.572Z,1019.03
2017-05-25T09:11:43.608Z,1019.01
2017-05-25T09:12:43.648Z,1019.1
2017-05-25T09:13:43.686Z,1019.11
2017-05-25T09:14:43.725Z,1019.14
2017-05-25T09:15:43.765Z,1019.08
2017-05-25T09:16:43.807Z,1019.07
2017-05-25T09:17:43.849Z,1019.15
2017-05-25T09:18:43.887Z,1019.11
2017-05-25T09:19:43.928Z,1019.11
2017-05-25T09:20:43.963Z,1019.05
2017-05-25T09:21:44.005Z,1019.08
2017-05-25T09:22:44.042Z,1019.14
2017-05-25T09:23:44.071Z,1019.16
2017-05-25T09:24:44.120Z,1019.19
2017-05-25T09:25:44.162Z,1019.25
2017-05-25T09:26:44.198Z,1019.21
2017-05-25T09:27:44.236Z,1019.2
2017-05-25T09:28:44.287Z,1019.23
2017-05-25T09:29:44.320Z,1019.2
2017-05-25T09:30:44.353Z,1019.24
2017-05-25T09:31:44.392Z,1019.26
2017-05-25T09:32:44.431Z,1019.16
2017-05-25T09:33:44.470Z,1019.14
2017-05-25T09:34:44.511Z,1019.16
2017-05-25T09:35:44.551Z,1019.17
2017-05-25T09:36:44.587Z,1019.15
2017-05-25T09:37:44.617Z,1019.17
2017-05-25T09:38:44.665Z,1019.24
2017-05-25T09:39:44.703Z,1019.2
2017-05-25T09:40:44.738Z,1019.22
2017-05-25T09:41:44.779Z,1019.25
2017-05-25T09:42:44.817Z,1019.26
2017-05-25T09:43:44.856Z,1019.22
2017-05-25T09:44:44.891Z,1019.2
2017-05-25T09:45:44.937Z,1019.19
2017-05-25T09:46:44.966Z,1019.26
2017-05-25T09:47:45.009Z,1019.26
2017-05-25T09:48:45.047Z,1019.29
2017-05-25T09:49:45.083Z,1019.3
2017-05-25T09:50:45.119Z,1019.28
2017-05-25T09:51:45.159Z,1019.26
2017-05-25T09:52:45.197Z,1019.24
2017-05-25T09:53:45.234Z,1019.25
2017-05-25T09:54:45.271Z,1019.21
2017-05-25T09:55:45.313Z,1019.27
2017-05-25T09:56:45.347Z,1019.29
2017-05-25T09:57:45.388Z,1019.27
2017-05-25T09:58:45.410Z,1019.23
2017-05-25T09:59:45.463Z,1019.27
2017-05-25T10:00:45.499Z,1019.3
2017-05-25T10:01:45.535Z,1019.32
2017-05-25T10:02:45.572Z,1019.35
2017-05-25T10:03:45.609Z,1019.39
2017-05-25T10:04:45.654Z,1019.4
2017-05-25T10:05:45.694Z,1019.5
2017-05-25T10:06:45.726Z,1019.45
2017-05-25T10:07:45.764Z,1019.41
2017-05-25T10:08:45.803Z,1019.42
2017-05-25T10:09:45.834Z,1019.34
2017-05-25T10:10:45.875Z,1019.3
2017-05-25T10:11:45.913Z,1019.29
2017-05-25T10:12:45.961Z,1019.26
2017-05-25T10:13:45.984Z,1019.26
2017-05-25T10:14:46.026Z,1019.3
2017-05-25T10:15:46.064Z,1019.25
2017-05-25T10:16:46.101Z,1019.31
2017-05-25T10:17:46.136Z,1019.3
2017-05-25T10:18:46.175Z,1019.28
2017-05-25T10:19:46.220Z,1019.33
2017-05-25T10:20:46.254Z,1019.28
2017-05-25T10:21:46.287Z,1019.23
2017-05-25T10:22:46.328Z,1019.22
2017-05-25T10:23:46.365Z,1019.26
2017-05-25T10:24:46.404Z,1019.29
2017-05-25T10:25:46.441Z,1019.38
2017-05-25T10:26:46.470Z,1019.35
2017-05-25T10:27:46.513Z,1019.24
2017-05-25T10:28:46.552Z,1019.22
2017-05-25T10:29:46.590Z,1019.29
2017-05-25T10:30:46.633Z,1019.27
2017-05-25T10:31:46.668Z,1019.27
2017-05-25T10:32:46.707Z,1019.23
2017-05-25T10:33:46.737Z,1019.28
2017-05-25T10:34:46.785Z,1019.3
2017-05-25T10:35:46.822Z,1019.4
2017-05-25T10:36:46.855Z,1019.38
2017-05-25T10:37:46.897Z,1019.38
2017-05-25T10:38:46.958Z,1019.43
2017-05-25T10:39:46.970Z,1019.37
2017-05-25T10:40:47.008Z,1019.41
2017-05-25T10:41:47.055Z,1019.36
2017-05-25T10:42:47.081Z,1019.33
2017-05-25T10:43:47.110Z,1019.37
2017-05-25T10:44:47.146Z,1019.36
2017-05-25T10:45:47.191Z,1019.39
2017-05-25T10:46:47.437Z,1019.42
2017-05-25T10:47:47.274Z,1019.71
2017-05-25T10:48:47.298Z,1019.45
2017-05-25T10:49:47.351Z,1019.37
2017-05-25T10:50:47.389Z,1019.35
2017-05-25T10:51:47.428Z,1019.32
2017-05-25T10:52:47.465Z,1019.36
2017-05-25T10:53:47.502Z,1019.19
2017-05-25T10:54:47.542Z,1019.29
2017-05-25T10:55:47.580Z,1019.32
2017-05-25T10:56:47.618Z,1019.32
2017-05-25T10:57:47.652Z,1019.38
2017-05-25T10:58:47.691Z,1019.35
2017-05-25T10:59:47.731Z,1019.42
2017-05-25T11:00:47.769Z,1019.4
2017-05-25T11:01:47.811Z,1019.37
2017-05-25T11:02:47.847Z,1019.33
2017-05-25T11:03:47.884Z,1019.31
2017-05-25T11:04:47.904Z,1019.35
2017-05-25T11:05:47.961Z,1019.34
2017-05-25T11:06:47.997Z,1019.35
2017-05-25T11:07:48.032Z,1019.33
2017-05-25T11:08:48.071Z,1019.37
2017-05-25T11:09:48.107Z,1019.37
2017-05-25T11:10:48.145Z,1019.3
2017-05-25T11:11:48.178Z,1019.26
2017-05-25T11:12:48.218Z,1019.31
2017-05-25T11:13:48.260Z,1019.26
2017-05-25T11:14:48.297Z,1019.27
2017-05-25T11:15:48.336Z,1019.25
2017-05-25T11:16:48.372Z,1019.23
2017-05-25T11:17:48.407Z,1019.21
2017-05-25T11:18:48.446Z,1019.2
2017-05-25T11:19:48.486Z,1019.23
2017-05-25T11:20:48.522Z,1019.25
2017-05-25T11:21:48.558Z,1019.26
2017-05-25T11:22:48.599Z,1019.26
2017-05-25T11:23:48.636Z,1019.29
2017-05-25T11:24:48.673Z,1019.24
2017-05-25T11:25:48.714Z,1019.25
2017-05-25T11:26:48.749Z,1019.27
2017-05-25T11:27:48.795Z,1019.25
2017-05-25T11:28:48.827Z,1019.26
2017-05-25T11:29:48.867Z,1019.25
2017-05-25T11:30:48.900Z,1019.29
2017-05-25T11:31:48.938Z,1019.31
2017-05-25T11:32:48.967Z,1019.3
2017-05-25T11:33:49.015Z,1019.3
2017-05-25T11:34:49.055Z,1019.36
2017-05-25T11:35:49.091Z,1019.38
2017-05-25T11:36:49.125Z,1019.37
2017-05-25T11:37:49.167Z,1019.44
2017-05-25T11:38:49.202Z,1019.43
2017-05-25T11:39:49.238Z,1019.44
2017-05-25T11:40:49.266Z,1019.4
2017-05-25T11:41:49.312Z,1019.4
2017-05-25T11:42:49.354Z,1019.36
2017-05-25T11:43:49.389Z,1019.35
2017-05-25T11:44:49.414Z,1019.33
2017-05-25T11:45:49.469Z,1019.4
2017-05-25T11:46:49.499Z,1019.36
2017-05-25T11:47:49.541Z,1019.36
2017-05-25T11:48:49.565Z,1019.36
2017-05-25T11:49:49.616Z,1019.36
2017-05-25T11:50:49.652Z,1019.4
2017-05-25T11:51:49.690Z,1019.4
2017-05-25T11:52:49.728Z,1019.4
2017-05-25T11:53:49.766Z,1019.43
2017-05-25T11:54:49.803Z,1019.44
2017-05-25T11:55:49.839Z,1019.41
2017-05-25T11:56:49.883Z,1019.39
2017-05-25T11:57:49.921Z,1019.39
2017-05-25T11:58:49.958Z,1019.37
2017-05-25T11:59:49.990Z,1019.34
2017-05-25T12:00:50.031Z,1019.37
2017-05-25T12:01:50.069Z,1019.28
2017-05-25T12:02:50.106Z,1019.36
2017-05-25T12:03:50.139Z,1019.36
2017-05-25T12:04:50.176Z,1019.37
2017-05-25T12:05:50.250Z,1019.37
2017-05-25T12:06:50.252Z,1019.39
2017-05-25T12:07:50.293Z,1019.43
2017-05-25T12:08:50.331Z,1019.41